Shaowu, China
Current Conditions -  °F | °C
As of 3:00 PM on Friday 28 Nov 2014 (Local Time) from ZSFZ Reporting Station
Haze Haze  
Wind Chill: 72°   Ceiling: Unl
Heat Index: 72°   Visibility: 3mi
Dew Point: 68°   Wind: 2mph
Humidity: 88%   Direction: NA
Pressure: 29.94"   Gusts: NA
Location:  27.3°N, 117.5°E
Report Text: ZSFZ 280700Z VRB01MPS 5000 BR NSC 22/20 Q1014 NOSIG
Loading
Personal Weather Stations






























Interactive Weather Map New forecast layout! Learn more

10-Day Weather Forecast

Advertisements
Track Severe Weather on mobile